Time;durP1;ratioP1;P1;durP2;ratioP2;P2;SDS_P1;SDS_P2;PMS_P1;PMS_P2;Temp;Humidity;BMP_temperature;BMP_pressure;BME280_temperature;BME280_humidity;BME280_pressure;Samples;Min_cycle;Max_cycle;Signal;HPM_P1;HPM_P2
2021/01/18 00:00:24;;;;;;;13.10;3.65;;;;;;;6.94;100.00;103017.81;5070669;28;20398;-65
2021/01/18 00:02:51;;;;;;;11.05;3.70;;;;;;;6.92;100.00;103016.25;5070756;28;20063;-65
2021/01/18 00:05:16;;;;;;;17.15;3.33;;;;;;;6.89;100.00;103014.72;5070636;28;20037;-65
2021/01/18 00:07:46;;;;;;;11.07;4.13;;;;;;;6.87;100.00;103011.31;5070762;28;20043;-65
2021/01/18 00:10:19;;;;;;;15.02;3.88;;;;;;;6.86;100.00;102997.91;5070634;28;20045;-65
2021/01/18 00:12:50;;;;;;;14.93;4.47;;;;;;;6.83;100.00;102990.94;5070640;28;20479;-65
2021/01/18 00:15:17;;;;;;;10.27;4.72;;;;;;;6.80;100.00;102985.84;5070676;28;20025;-65
2021/01/18 00:17:43;;;;;;;13.20;4.40;;;;;;;6.77;100.00;102983.47;5070732;28;20033;-65
2021/01/18 00:20:11;;;;;;;15.80;4.72;;;;;;;6.75;100.00;102971.88;5070359;28;20040;-65
2021/01/18 00:22:41;;;;;;;15.63;5.20;;;;;;;6.75;100.00;102973.75;5070466;28;20101;-65
2021/01/18 00:25:11;;;;;;;15.07;3.92;;;;;;;6.73;100.00;102976.63;5070508;28;20045;-65
2021/01/18 00:27:38;;;;;;;13.43;4.72;;;;;;;6.73;100.00;102976.63;5070369;28;20059;-66
2021/01/18 00:30:09;;;;;;;12.68;4.30;;;;;;;6.73;100.00;102978.50;5070432;28;20584;-65
2021/01/18 00:32:36;;;;;;;15.57;5.60;;;;;;;6.73;100.00;102976.63;5070533;28;20039;-65
2021/01/18 00:35:03;;;;;;;14.20;4.38;;;;;;;6.72;100.00;102974.94;5070445;28;20427;-65
2021/01/18 00:37:29;;;;;;;19.73;5.15;;;;;;;6.71;100.00;102977.81;5070285;28;20037;-65
2021/01/18 00:39:54;;;;;;;10.15;3.00;;;;;;;6.71;100.00;102978.66;5070250;28;20048;-65
2021/01/18 00:42:20;;;;;;;14.60;4.32;;;;;;;6.71;100.00;102970.50;5070347;28;20127;-64
2021/01/18 00:44:46;;;;;;;15.15;3.78;;;;;;;6.70;100.00;102966.09;5070452;28;20068;-65
2021/01/18 00:47:12;;;;;;;13.98;4.28;;;;;;;6.72;100.00;102974.94;5052264;28;20498;-65
2021/01/18 00:49:38;;;;;;;12.35;3.67;;;;;;;6.70;100.00;102968.81;5070301;28;20076;-65
2021/01/18 00:52:04;;;;;;;11.73;4.28;;;;;;;6.70;100.00;102959.81;5070180;28;20119;-65
2021/01/18 00:54:30;;;;;;;14.50;4.20;;;;;;;6.68;100.00;102961.84;5070132;28;20036;-65
2021/01/18 00:56:55;;;;;;;20.02;4.65;;;;;;;6.65;100.00;102963.03;5070300;28;20062;-65
2021/01/18 00:59:21;;;;;;;15.55;3.67;;;;;;;6.63;100.00;102959.63;5070059;28;20037;-65
2021/01/18 01:01:46;;;;;;;16.92;4.22;;;;;;;6.61;100.00;102961.69;5070221;28;20452;-65
2021/01/18 01:04:12;;;;;;;14.43;3.75;;;;;;;6.58;100.00;102953.84;5073184;28;20086;-65
2021/01/18 01:06:37;;;;;;;11.35;3.65;;;;;;;6.56;100.00;102950.44;5073835;28;20040;-65
2021/01/18 01:09:04;;;;;;;17.45;4.78;;;;;;;6.55;100.00;102956.88;5073667;28;20032;-65
2021/01/18 01:11:30;;;;;;;13.82;4.18;;;;;;;6.53;100.00;102964.34;5073648;28;20044;-65
2021/01/18 01:13:56;;;;;;;17.38;5.03;;;;;;;6.52;100.00;102962.63;5073744;28;20113;-64
2021/01/18 01:16:22;;;;;;;9.00;3.65;;;;;;;6.52;100.00;102959.94;5073597;28;20494;-65
2021/01/18 01:18:47;;;;;;;22.70;4.80;;;;;;;6.53;100.00;102964.34;5073459;28;20394;-64
2021/01/18 01:21:13;;;;;;;15.35;3.58;;;;;;;6.53;100.00;102965.19;5073589;28;20036;-65
2021/01/18 01:23:39;;;;;;;8.02;3.15;;;;;;;6.55;100.00;102967.75;5073651;28;20068;-65
2021/01/18 01:26:05;;;;;;;12.43;3.13;;;;;;;6.56;100.00;102961.28;5073538;28;20514;-65
2021/01/18 01:28:30;;;;;;;18.80;3.67;;;;;;;6.60;100.00;102959.97;5073380;28;20449;-65
2021/01/18 01:30:56;;;;;;;16.77;4.03;;;;;;;6.60;100.00;102954.53;5073709;28;20039;-67
2021/01/18 01:33:21;;;;;;;14.48;3.05;;;;;;;6.62;100.00;102952.50;5073612;28;20036;-65
2021/01/18 01:35:47;;;;;;;15.63;3.97;;;;;;;6.62;100.00;102958.78;5073471;28;20398;-65
2021/01/18 01:38:13;;;;;;;12.80;3.15;;;;;;;6.65;100.00;102954.88;5073464;28;20390;-65
2021/01/18 01:40:39;;;;;;;15.80;3.10;;;;;;;6.66;100.00;102943.00;5073124;28;20486;-65
2021/01/18 01:43:05;;;;;;;12.02;2.58;;;;;;;6.68;100.00;102946.41;5073230;28;20043;-64
2021/01/18 01:45:31;;;;;;;10.38;2.45;;;;;;;6.69;100.00;102945.41;5073201;28;20044;-65
2021/01/18 01:47:57;;;;;;;6.15;2.13;;;;;;;6.67;100.00;102944.72;5073230;28;20075;-65
2021/01/18 01:50:26;;;;;;;11.10;3.85;;;;;;;6.65;100.00;102935.88;5072915;28;20036;-65
2021/01/18 01:52:56;;;;;;;11.93;3.28;;;;;;;6.69;100.00;102941.81;5072883;28;20386;-64
2021/01/18 01:55:28;;;;;;;11.82;4.25;;;;;;;6.68;100.00;102940.97;5072944;28;20037;-65
2021/01/18 01:57:53;;;;;;;8.32;3.60;;;;;;;6.69;100.00;102934.53;5055002;28;20410;-66
2021/01/18 02:00:19;;;;;;;13.75;3.35;;;;;;;6.69;100.00;102926.38;5072631;28;20048;-66
2021/01/18 02:02:45;;;;;;;12.95;3.20;;;;;;;6.70;100.00;102916.38;5073326;28;20097;-65
2021/01/18 02:05:15;;;;;;;11.93;3.28;;;;;;;6.71;100.00;102923.50;5072654;28;20498;-65
2021/01/18 02:07:41;;;;;;;16.75;3.45;;;;;;;6.71;100.00;102915.34;5072809;28;20032;-65
2021/01/18 02:10:08;;;;;;;12.40;3.95;;;;;;;6.74;100.00;102924.00;5072504;28;20047;-65
2021/01/18 02:12:35;;;;;;;19.70;4.00;;;;;;;6.73;100.00;102919.59;5072575;28;20028;-65
2021/01/18 02:15:18;;;;;;;11.65;3.47;;;;;;;6.74;100.00;102924.00;5071581;28;20036;-65
2021/01/18 02:18:02;;;;;;;14.40;3.30;;;;;;;6.74;100.00;102918.59;5072493;28;20039;-65
2021/01/18 02:21:05;;;;;;;18.88;5.50;;;;;;;6.75;100.00;102924.88;5072316;28;20040;-65
2021/01/18 02:23:52;;;;;;;14.48;4.05;;;;;;;6.74;100.00;102917.72;5072259;28;20089;-65
2021/01/18 02:26:39;;;;;;;10.95;3.42;;;;;;;6.73;100.00;102919.59;5072315;28;20119;-65
2021/01/18 02:29:14;;;;;;;13.40;3.83;;;;;;;6.72;100.00;102923.31;5072061;28;20510;-65
2021/01/18 02:31:39;;;;;;;15.13;4.32;;;;;;;6.68;100.00;102926.56;5072112;28;20390;-66
2021/01/18 02:34:20;;;;;;;8.00;4.00;;;;;;;6.65;100.00;102914.16;5072039;28;20036;-65
2021/01/18 02:37:10;;;;;;;23.80;4.88;;;;;;;6.63;100.00;102905.34;5072072;28;20402;-65
2021/01/18 02:39:55;;;;;;;11.25;4.05;;;;;;;6.61;100.00;102912.81;5071862;28;20551;-65
2021/01/18 02:42:28;;;;;;;14.77;4.20;;;;;;;6.59;100.00;102915.66;5071978;28;20375;-65
2021/01/18 02:44:58;;;;;;;8.30;3.67;;;;;;;6.58;100.00;102913.09;5072162;28;20033;-65
2021/01/18 02:47:29;;;;;;;15.98;4.00;;;;;;;6.56;100.00;102904.28;5072082;28;20491;-65
2021/01/18 02:49:57;;;;;;;14.48;4.53;;;;;;;6.55;100.00;102906.13;5071910;28;20039;-65
2021/01/18 02:52:22;;;;;;;10.25;3.53;;;;;;;6.54;100.00;102898.16;5071787;28;20402;-65
2021/01/18 02:54:48;;;;;;;14.90;3.92;;;;;;;6.54;100.00;102901.72;5071682;28;20044;-64
2021/01/18 02:57:19;;;;;;;8.00;3.60;;;;;;;6.53;100.00;102896.47;5071536;28;20047;-65
2021/01/18 02:59:44;;;;;;;13.48;4.03;;;;;;;6.52;100.00;102886.63;5071503;28;20407;-65
2021/01/18 03:02:19;;;;;;;8.32;4.28;;;;;;;6.52;100.00;102892.06;5071559;28;20028;-65
2021/01/18 03:04:51;;;;;;;;;;;;;;;6.52;100.00;102886.63;5071976;28;20048;-65
2021/01/18 03:07:39;;;;;;;12.40;4.15;;;;;;;6.50;100.00;102881.34;5071469;28;20066;-65
2021/01/18 03:10:08;;;;;;;8.80;3.90;;;;;;;6.50;100.00;102872.38;5071539;28;20415;-65
2021/01/18 03:13:04;;;;;;;13.90;4.13;;;;;;;6.49;100.00;102876.09;5071622;28;20525;-65
2021/01/18 03:15:38;;;;;;;13.23;4.20;;;;;;;6.48;100.00;102871.69;5071009;28;20471;-65
2021/01/18 03:18:06;;;;;;;9.45;3.35;;;;;;;6.47;100.00;102867.28;5071291;28;20036;-65
2021/01/18 03:20:32;;;;;;;8.82;3.60;;;;;;;6.47;100.00;102864.56;5071045;28;20051;-65
2021/01/18 03:23:07;;;;;;;13.00;3.38;;;;;;;6.47;100.00;102856.41;5071197;28;20048;-65
2021/01/18 03:25:54;;;;;;;12.18;3.70;;;;;;;6.47;100.00;102859.13;5071061;28;20127;-65
2021/01/18 03:28:21;;;;;;;10.38;2.88;;;;;;;6.46;100.00;102854.72;5070903;28;20577;-65
2021/01/18 03:30:47;;;;;;;8.93;2.60;;;;;;;6.46;100.00;102865.56;5071120;28;20845;-65
2021/01/18 03:33:14;;;;;;;8.77;2.55;;;;;;;6.46;100.00;102855.56;5071076;28;20036;-65
2021/01/18 03:35:40;;;;;;;11.32;3.05;;;;;;;6.46;100.00;102854.72;5071008;28;20487;-65
2021/01/18 03:38:06;;;;;;;11.32;2.85;;;;;;;6.45;100.00;102850.31;5071018;28;20060;-65
2021/01/18 03:40:32;;;;;;;5.72;2.40;;;;;;;6.45;100.00;102842.16;5070870;28;20047;-65
2021/01/18 03:43:01;;;;;;;9.38;2.63;;;;;;;6.45;100.00;102847.59;5070937;28;20123;-65
2021/01/18 03:45:30;;;;;;;5.70;1.98;;;;;;;6.44;100.00;102837.75;5070887;28;20115;-65
2021/01/18 03:47:56;;;;;;;6.35;1.85;;;;;;;6.44;100.00;102835.03;5070943;28;20028;-65
2021/01/18 03:50:22;;;;;;;7.22;2.03;;;;;;;6.43;100.00;102838.78;5070821;28;20032;-65
2021/01/18 03:52:49;;;;;;;7.70;2.20;;;;;;;6.42;100.00;102831.59;5070767;28;20042;-65
2021/01/18 03:55:15;;;;;;;8.20;2.10;;;;;;;6.41;100.00;102840.78;5070783;28;20032;-65
2021/01/18 03:57:44;;;;;;;9.93;2.63;;;;;;;6.43;100.00;102833.34;5070749;28;20044;-66
2021/01/18 04:00:10;;;;;;;8.35;2.78;;;;;;;6.44;100.00;102835.03;5070598;28;20487;-65
2021/01/18 04:02:35;;;;;;;12.68;2.67;;;;;;;6.44;100.00;102824.19;5070794;28;20127;-65
2021/01/18 04:05:01;;;;;;;7.63;2.13;;;;;;;6.43;100.00;102823.34;5070663;28;20043;-65
2021/01/18 04:07:27;;;;;;;4.80;2.42;;;;;;;6.44;100.00;102819.59;5070860;28;20036;-65
2021/01/18 04:09:54;;;;;;;9.25;2.13;;;;;;;6.42;100.00;102818.03;5070607;28;20036;-65
2021/01/18 04:12:19;;;;;;;8.90;2.40;;;;;;;6.41;100.00;102813.63;5070610;28;20044;-65
2021/01/18 04:14:45;;;;;;;7.45;2.35;;;;;;;6.41;100.00;102808.19;5070644;28;20056;-65
2021/01/18 04:17:11;;;;;;;11.35;2.08;;;;;;;6.40;100.00;102811.94;5070538;28;20054;-65
2021/01/18 04:19:37;;;;;;;9.35;2.90;;;;;;;6.40;100.00;102811.94;5070514;28;20086;-65
2021/01/18 04:22:06;;;;;;;8.98;2.40;;;;;;;6.38;100.00;102806.66;5070534;28;20041;-65
2021/01/18 04:24:33;;;;;;;8.48;2.28;;;;;;;6.34;100.00;102798.03;5070516;28;20467;-65
2021/01/18 04:26:58;;;;;;;9.43;2.75;;;;;;;6.33;100.00;102800.91;5070451;28;20041;-65
2021/01/18 04:29:24;;;;;;;8.18;2.17;;;;;;;6.29;100.00;102800.38;5070325;28;20143;-65
2021/01/18 04:31:50;;;;;;;12.10;2.25;;;;;;;6.26;100.00;102794.44;5070685;28;20064;-65
2021/01/18 04:34:15;;;;;;;5.93;1.80;;;;;;;6.24;100.00;102794.59;5070396;28;20082;-65
2021/01/18 04:36:41;;;;;;;12.95;2.42;;;;;;;6.23;100.00;102795.59;5070448;28;20502;-65
2021/01/18 04:39:08;;;;;;;7.35;2.03;;;;;;;6.21;100.00;102792.22;5073402;28;20048;-65
2021/01/18 04:41:41;;;;;;;11.85;2.55;;;;;;;6.18;100.00;102787.13;5074691;28;20040;-65
2021/01/18 04:44:08;;;;;;;8.75;2.30;;;;;;;6.14;100.00;102783.03;5074205;28;20028;-65
2021/01/18 04:46:45;;;;;;;9.82;2.72;;;;;;;6.09;100.00;102777.28;5074105;28;20037;-65
2021/01/18 04:49:12;;;;;;;6.75;2.38;;;;;;;6.05;100.00;102781.31;5074160;28;20498;-65
2021/01/18 04:51:48;;;;;;;11.98;2.50;;;;;;;5.99;100.00;102779.28;5074092;28;20132;-65
2021/01/18 04:54:16;;;;;;;10.10;2.75;;;;;;;5.93;100.00;102774.50;5073917;28;20042;-65
2021/01/18 04:57:04;;;;;;;7.20;2.83;;;;;;;5.89;100.00;102770.38;5073966;28;20044;-65
2021/01/18 04:59:38;;;;;;;4.65;2.53;;;;;;;5.86;100.00;102770.72;5073815;28;20034;-65
2021/01/18 05:02:11;;;;;;;16.95;2.83;;;;;;;5.83;100.00;102771.03;5073901;28;20042;-65
2021/01/18 05:04:39;;;;;;;13.43;2.70;;;;;;;5.85;100.00;102777.16;5073785;28;20036;-65
2021/01/18 05:07:37;;;;;;;8.93;2.50;;;;;;;5.84;100.00;102767.31;5073819;28;20064;-65
2021/01/18 05:10:10;;;;;;;9.45;3.10;;;;;;;5.82;100.00;102756.63;5067742;28;20093;-65
2021/01/18 05:12:42;;;;;;;10.27;3.47;;;;;;;5.82;100.00;102769.34;5073515;28;20060;-65
2021/01/18 05:15:12;;;;;;;9.70;2.42;;;;;;;5.82;100.00;102766.63;5073548;28;20459;-65
2021/01/18 05:17:48;;;;;;;13.52;3.38;;;;;;;5.83;100.00;102765.63;5073690;28;20040;-65
2021/01/18 05:20:16;;;;;;;12.85;3.42;;;;;;;5.83;100.00;102771.03;5073667;28;20056;-65
2021/01/18 05:22:44;;;;;;;12.50;3.60;;;;;;;5.81;100.00;102775.78;5073493;28;20102;-65
2021/01/18 05:25:13;;;;;;;11.63;3.13;;;;;;;5.78;100.00;102768.81;5073451;28;20498;-65
2021/01/18 05:27:58;;;;;;;8.70;3.85;;;;;;;5.78;100.00;102770.69;5055611;28;20057;-65
2021/01/18 05:30:25;;;;;;;10.13;3.47;;;;;;;5.78;100.00;102776.97;5073393;28;20030;-65
2021/01/18 05:33:01;;;;;;;8.90;3.50;;;;;;;5.77;100.00;102767.13;5073367;28;20068;-65
2021/01/18 05:35:27;;;;;;;10.05;3.78;;;;;;;5.77;100.00;102766.28;5073253;28;20040;-65
2021/01/18 05:38:11;;;;;;;11.48;3.95;;;;;;;5.74;100.00;102768.31;5073248;28;20041;-65
2021/01/18 05:40:38;;;;;;;14.70;4.00;;;;;;;5.73;100.00;102773.91;5073121;28;20033;-65
2021/01/18 05:43:04;;;;;;;17.35;3.35;;;;;;;5.74;100.00;102770.16;5073115;28;20060;-65
2021/01/18 05:45:35;;;;;;;9.60;2.72;;;;;;;5.75;100.00;102770.00;5073034;28;20475;-65
2021/01/18 05:48:02;;;;;;;7.60;2.50;;;;;;;5.75;100.00;102756.44;5073054;28;20445;-65
2021/01/18 05:50:28;;;;;;;7.00;2.65;;;;;;;5.77;100.00;102755.44;5071552;28;20044;-65
2021/01/18 05:52:55;;;;;;;12.52;2.70;;;;;;;5.75;100.00;102756.44;5072844;28;20032;-65
2021/01/18 05:55:28;;;;;;;11.60;2.80;;;;;;;5.76;100.00;102749.16;5072917;28;20474;-65
2021/01/18 05:58:03;;;;;;;7.65;2.45;;;;;;;5.80;100.00;102752.38;5072859;28;20029;-65
2021/01/18 06:00:41;;;;;;;11.15;2.88;;;;;;;5.84;100.00;102751.03;5072604;28;20048;-65
2021/01/18 06:03:11;;;;;;;9.93;2.25;;;;;;;5.87;100.00;102748.84;5072760;28;20097;-64
2021/01/18 06:05:41;;;;;;;8.88;2.20;;;;;;;5.91;100.00;102746.72;5073047;28;20036;-65
2021/01/18 06:08:14;;;;;;;9.00;2.20;;;;;;;5.95;100.00;102748.06;5072623;28;20497;-65
2021/01/18 06:10:40;;;;;;;11.18;2.53;;;;;;;5.99;100.00;102744.00;5072697;28;20029;-65
2021/01/18 06:13:30;;;;;;;7.93;1.92;;;;;;;6.03;100.00;102750.78;5072529;28;20036;-65
2021/01/18 06:16:01;;;;;;;9.07;2.60;;;;;;;6.05;100.00;102754.19;5072490;28;20431;-65
2021/01/18 06:18:29;;;;;;;6.78;1.70;;;;;;;6.07;100.00;102754.88;5072524;28;20123;-65
2021/01/18 06:20:56;;;;;;;14.02;2.30;;;;;;;6.09;100.00;102739.28;5072279;28;20399;-65
2021/01/18 06:23:22;;;;;;;10.60;2.30;;;;;;;6.09;100.00;102728.44;5072198;28;20398;-65
2021/01/18 06:25:53;;;;;;;10.40;1.75;;;;;;;6.13;100.00;102732.50;5072231;28;20040;-65
2021/01/18 06:28:36;;;;;;;7.72;1.95;;;;;;;6.17;100.00;102731.16;5072256;28;20486;-65
2021/01/18 06:31:08;;;;;;;14.32;2.00;;;;;;;6.19;100.00;102722.84;5072182;28;20082;-65
2021/01/18 06:33:50;;;;;;;8.48;1.88;;;;;;;6.22;100.00;102725.22;5072090;28;20487;-65
2021/01/18 06:36:18;;;;;;;23.75;2.10;;;;;;;6.21;100.00;102716.22;5072171;28;20043;-65
2021/01/18 06:38:59;;;;;;;10.00;2.60;;;;;;;6.22;100.00;102717.09;5071934;28;20115;-64
2021/01/18 06:41:30;;;;;;;5.50;1.70;;;;;;;6.21;100.00;102716.22;5071933;28;20029;-66
2021/01/18 06:43:56;;;;;;;9.52;2.35;;;;;;;6.20;100.00;102719.97;5072057;28;20047;-65
2021/01/18 06:46:25;;;;;;;10.05;2.38;;;;;;;6.19;100.00;102712.00;5071820;28;20455;-65
2021/01/18 06:48:52;;;;;;;9.70;2.42;;;;;;;6.19;100.00;102712.00;5071683;28;20039;-65
2021/01/18 06:51:23;;;;;;;9.60;2.55;;;;;;;6.18;100.00;102705.72;5071836;28;20492;-65
2021/01/18 06:53:51;;;;;;;11.23;2.47;;;;;;;6.18;100.00;102699.44;5071652;28;20060;-65
2021/01/18 06:56:22;;;;;;;10.05;2.15;;;;;;;6.18;100.00;102711.16;5071582;28;20118;-65
2021/01/18 06:58:51;;;;;;;9.25;2.55;;;;;;;6.19;100.00;102712.00;5071521;28;20094;-64
2021/01/18 07:01:34;;;;;;;12.45;2.50;;;;;;;6.20;100.00;102713.69;5071233;28;20040;-65
2021/01/18 07:04:10;;;;;;;11.18;3.20;;;;;;;6.20;100.00;102714.53;5071452;28;20055;-65
2021/01/18 07:06:39;;;;;;;9.48;2.97;;;;;;;6.18;100.00;102708.44;5071476;28;20121;-65
2021/01/18 07:09:08;;;;;;;10.93;3.03;;;;;;;6.17;100.00;102704.03;5071857;28;20036;-65
2021/01/18 07:11:34;;;;;;;8.43;3.25;;;;;;;6.17;100.00;102704.03;5071330;28;20048;-65
2021/01/18 07:14:04;;;;;;;7.40;3.05;;;;;;;6.18;100.00;102703.00;5071478;28;20127;-65
2021/01/18 07:16:30;;;;;;;9.40;2.67;;;;;;;6.18;100.00;102708.44;5071535;28;20032;-65
2021/01/18 07:18:59;;;;;;;15.40;3.15;;;;;;;6.17;100.00;102698.59;5053032;28;20097;-65
2021/01/18 07:21:58;;;;;;;10.82;4.05;;;;;;;6.16;100.00;102706.91;5071257;28;20036;-65
2021/01/18 07:24:29;;;;;;;8.23;3.67;;;;;;;6.14;100.00;102706.22;5065827;28;20104;-65
2021/01/18 07:27:05;;;;;;;14.57;4.03;;;;;;;6.13;100.00;102710.81;5071144;28;20067;-65
2021/01/18 07:29:32;;;;;;;15.32;4.38;;;;;;;6.12;100.00;102714.53;5070771;28;20040;-65
2021/01/18 07:31:59;;;;;;;11.82;3.92;;;;;;;6.10;100.00;102711.16;5071131;28;20457;-64
2021/01/18 07:34:28;;;;;;;6.03;3.72;;;;;;;6.07;100.00;102714.16;5070937;28;20465;-65
2021/01/18 07:37:09;;;;;;;7.07;4.43;;;;;;;6.05;100.00;102708.91;5070976;28;20127;-65
2021/01/18 07:39:38;;;;;;;10.30;4.40;;;;;;;6.05;100.00;102713.50;5070922;28;20036;-65
2021/01/18 07:42:05;;;;;;;12.48;4.30;;;;;;;6.02;100.00;102700.25;5070992;28;20040;-64
2021/01/18 07:44:45;;;;;;;13.55;3.88;;;;;;;5.99;100.00;102701.44;5070839;28;20047;-65
2021/01/18 07:47:13;;;;;;;11.50;3.95;;;;;;;5.98;100.00;102713.31;5070845;28;20055;-64
2021/01/18 07:49:44;;;;;;;10.93;4.45;;;;;;;5.98;100.00;102704.34;5070960;28;20055;-65
2021/01/18 07:52:26;;;;;;;7.45;3.17;;;;;;;5.96;100.00;102696.38;5070801;28;20039;-65
2021/01/18 07:54:54;;;;;;;11.70;6.00;;;;;;;5.98;100.00;102704.34;5070785;28;20063;-65
2021/01/18 07:57:25;;;;;;;11.55;5.88;;;;;;;5.99;100.00;102700.59;5070805;28;20082;-66
2021/01/18 08:00:19;;;;;;;14.90;4.82;;;;;;;5.97;100.00;102697.22;5070532;28;20438;-65
2021/01/18 08:02:49;;;;;;;12.70;3.70;;;;;;;5.99;100.00;102693.31;5070763;28;20036;-65
2021/01/18 08:05:30;;;;;;;13.32;3.80;;;;;;;6.00;100.00;102691.44;5070829;28;20035;-65
2021/01/18 08:08:10;;;;;;;7.18;3.08;;;;;;;6.01;100.00;102699.41;5070720;28;20036;-65
2021/01/18 08:11:04;;;;;;;9.52;3.50;;;;;;;6.01;100.00;102688.56;5070609;28;20116;-65
2021/01/18 08:13:39;;;;;;;10.90;3.67;;;;;;;6.01;100.00;102694.00;5073114;28;20085;-65
2021/01/18 08:16:15;;;;;;;11.18;3.83;;;;;;;6.02;100.00;102692.13;5074644;28;20089;-65
2021/01/18 08:19:07;;;;;;;13.95;4.65;;;;;;;6.04;100.00;102699.09;5074540;28;20040;-65
2021/01/18 08:21:35;;;;;;;11.30;3.25;;;;;;;6.04;100.00;102698.22;5074677;28;20120;-65
2021/01/18 08:24:01;;;;;;;13.15;4.45;;;;;;;6.07;100.00;102689.75;5074904;28;20123;-65
2021/01/18 08:26:27;;;;;;;14.25;5.07;;;;;;;6.08;100.00;102691.47;5074478;28;20029;-65
2021/01/18 08:28:54;;;;;;;9.88;4.13;;;;;;;6.10;100.00;102684.03;5074305;28;20044;-65
2021/01/18 08:31:20;;;;;;;14.95;4.05;;;;;;;6.13;100.00;102680.97;5074473;28;20551;-65
2021/01/18 08:33:46;;;;;;;8.45;3.42;;;;;;;6.15;100.00;102686.22;5074372;28;20032;-65
2021/01/18 08:36:29;;;;;;;10.00;3.80;;;;;;;6.16;100.00;102686.06;5074387;28;20048;-65
2021/01/18 08:39:08;;;;;;;12.75;4.10;;;;;;;6.18;100.00;102678.59;5074345;28;20036;-64
2021/01/18 08:41:45;;;;;;;12.93;3.80;;;;;;;6.21;100.00;102661.13;5074269;28;20060;-66
2021/01/18 08:44:12;;;;;;;7.82;3.13;;;;;;;6.23;100.00;102657.22;5074248;28;20453;-65
2021/01/18 08:46:40;;;;;;;9.45;3.35;;;;;;;6.25;100.00;102657.06;5074228;28;20037;-65
2021/01/18 08:49:31;;;;;;;4.93;3.10;;;;;;;6.25;100.00;102657.91;5074054;28;20028;-65
2021/01/18 08:51:58;;;;;;;16.73;3.45;;;;;;;6.29;100.00;102661.97;5074149;28;20028;-65
2021/01/18 08:54:36;;;;;;;13.20;3.78;;;;;;;6.31;100.00;102662.66;5074225;28;20032;-65
2021/01/18 08:57:25;;;;;;;8.73;3.03;;;;;;;6.37;100.00;102665.72;5073959;28;20036;-65
2021/01/18 09:00:13;;;;;;;10.73;3.10;;;;;;;6.41;100.00;102672.47;5074286;28;20059;-65
2021/01/18 09:02:40;;;;;;;18.65;4.75;;;;;;;6.45;100.00;102671.16;5073916;28;20033;-65
2021/01/18 09:05:19;;;;;;;11.75;3.72;;;;;;;6.47;100.00;102672.66;5073847;28;20037;-65
2021/01/18 09:07:46;;;;;;;10.80;4.35;;;;;;;6.50;100.00;102671.47;5073864;28;20153;-65
2021/01/18 09:10:16;;;;;;;12.10;3.50;;;;;;;6.53;100.00;102661.13;5073151;28;20672;-65
2021/01/18 09:12:44;;;;;;;13.15;4.18;;;;;;;6.56;100.00;102654.50;5057669;28;20110;-65
2021/01/18 09:15:11;;;;;;;13.65;7.05;;;;;;;6.58;100.00;102663.31;5073218;28;20113;-66
2021/01/18 09:17:37;;;;;;;15.82;6.82;;;;;;;6.60;100.00;102677.59;5073517;28;20051;-65
2021/01/18 09:20:05;;;;;;;39.67;31.40;;;;;;;6.63;100.00;102671.81;5072857;28;20045;-65
2021/01/18 09:22:33;;;;;;;11.82;6.07;;;;;;;6.68;100.00;102680.28;5073293;28;20036;-63
2021/01/18 09:24:59;;;;;;;13.55;4.10;;;;;;;6.69;100.00;102687.41;5072103;28;20127;-64
2021/01/18 09:27:24;;;;;;;9.73;3.55;;;;;;;6.73;100.00;102672.47;5053412;28;20542;-66
2021/01/18 09:30:16;;;;;;;18.08;4.00;;;;;;;6.78;100.00;102675.53;5072711;28;20074;-65
2021/01/18 09:32:59;;;;;;;18.10;4.45;;;;;;;6.85;100.00;102671.09;5068640;28;20036;-65
2021/01/18 09:35:27;;;;;;;11.77;3.92;;;;;;;6.92;100.00;102674.78;5054872;28;20372;-65
2021/01/18 09:37:54;;;;;;;17.40;3.80;;;;;;;7.02;100.00;102666.47;5073242;28;20524;-66
2021/01/18 09:40:19;;;;;;;22.20;9.57;;;;;;;7.11;100.00;102653.69;5072919;28;20036;-66
2021/01/18 09:42:48;;;;;;;20.67;3.95;;;;;;;7.23;100.00;102657.72;5072913;28;20086;-66
2021/01/18 09:45:15;;;;;;;21.35;3.30;;;;;;;7.36;100.00;102662.63;5072509;28;20135;-64
2021/01/18 09:47:41;;;;;;;25.33;9.32;;;;;;;7.47;100.00;102660.38;5072340;28;20548;-63
2021/01/18 09:50:14;;;;;;;22.85;6.90;;;;;;;7.60;100.00;102659.78;5072466;28;20028;-65
2021/01/18 09:52:50;;;;;;;25.67;7.18;;;;;;;7.74;100.00;102660.91;5073046;28;20102;-66
2021/01/18 09:55:21;;;;;;;18.92;5.90;;;;;;;7.85;100.00;102657.78;5072606;28;20079;-64
2021/01/18 09:58:12;;;;;;;14.13;3.38;;;;;;;7.96;100.00;102649.19;5072919;28;20062;-64
2021/01/18 10:00:40;;;;;;;15.40;4.63;;;;;;;8.05;100.00;102655.44;5072502;28;20064;-66
2021/01/18 10:03:07;;;;;;;16.42;2.28;;;;;;;8.10;100.00;102645.69;5072555;28;20032;-66
2021/01/18 10:05:38;;;;;;;30.30;15.02;;;;;;;8.15;100.00;102643.25;5073043;28;20120;-66
2021/01/18 10:08:17;;;;;;;27.85;6.38;;;;;;;8.21;100.00;102636.25;5072821;28;20050;-66
2021/01/18 10:10:45;;;;;;;13.90;2.38;;;;;;;8.28;100.00;102639.06;5072546;28;20471;-66
2021/01/18 10:13:19;;;;;;;30.50;9.45;;;;;;;8.33;100.00;102628.47;5072532;28;20373;-66
2021/01/18 10:15:47;;;;;;;19.63;7.88;;;;;;;8.37;100.00;102629.84;5072439;28;20032;-66
2021/01/18 10:18:29;;;;;;;28.13;10.23;;;;;;;8.41;100.00;102625.72;5072467;28;20043;-66
2021/01/18 10:20:55;;;;;;;27.88;10.02;;;;;;;8.44;100.00;102623.47;5072238;28;20048;-66
2021/01/18 10:23:21;;;;;;;34.00;7.05;;;;;;;8.48;100.00;102621.22;5072240;28;20032;-66
2021/01/18 10:25:46;;;;;;;19.17;4.68;;;;;;;8.52;100.00;102617.13;5072465;28;20028;-66
2021/01/18 10:28:19;;;;;;;27.08;3.72;;;;;;;8.57;100.00;102619.28;5072073;28;20391;-66
2021/01/18 10:30:45;;;;;;;24.45;4.75;;;;;;;8.60;100.00;102617.03;5072107;28;20028;-66
2021/01/18 10:33:18;;;;;;;38.15;10.32;;;;;;;8.65;100.00;102622.75;5072264;28;20090;-65
2021/01/18 10:35:47;;;;;;;26.95;3.72;;;;;;;8.68;100.00;102616.97;5071360;28;20040;-66
2021/01/18 10:38:20;;;;;;;25.27;6.13;;;;;;;8.73;100.00;102611.78;5072041;28;20040;-66
2021/01/18 10:41:05;;;;;;;25.83;7.50;;;;;;;8.78;100.00;102611.22;5071858;28;20037;-66
2021/01/18 10:43:31;;;;;;;21.95;3.20;;;;;;;8.81;100.00;102610.84;5071946;28;20040;-66
2021/01/18 10:45:58;;;;;;;21.50;2.60;;;;;;;8.85;100.00;102606.72;5071887;28;20490;-66
2021/01/18 10:48:28;;;;;;;19.00;3.47;;;;;;;8.90;100.00;102604.28;5071782;28;20043;-66
2021/01/18 10:50:58;;;;;;;21.20;2.97;;;;;;;9.00;100.00;102602.09;5071751;28;20475;-66
2021/01/18 10:53:32;;;;;;;18.73;2.63;;;;;;;9.08;100.00;102590.28;5071781;28;20036;-66
2021/01/18 10:56:13;;;;;;;21.35;2.88;;;;;;;9.15;100.00;102590.34;5071623;28;20066;-66
2021/01/18 10:58:39;;;;;;;18.08;3.00;;;;;;;9.20;100.00;102591.47;5071542;28;20052;-66
2021/01/18 11:01:12;;;;;;;22.35;2.40;;;;;;;9.25;100.00;102586.28;5071629;28;20040;-66
2021/01/18 11:03:42;;;;;;;17.77;3.47;;;;;;;9.30;100.00;102578.38;5071490;28;20086;-66
2021/01/18 11:06:13;;;;;;;20.40;3.35;;;;;;;9.32;100.00;102565.41;5071584;28;20515;-66
2021/01/18 11:08:39;;;;;;;20.52;3.20;;;;;;;9.34;100.00;102576.09;5071463;28;20037;-66
2021/01/18 11:11:22;;;;;;;29.45;3.30;;;;;;;9.38;100.00;102566.53;5053229;28;20044;-66
2021/01/18 11:13:57;;;;;;;17.60;2.63;;;;;;;9.41;100.00;102568.03;5071481;28;20036;-66
2021/01/18 11:16:23;;;;;;;32.10;3.42;;;;;;;9.45;100.00;102564.72;5071362;28;20478;-66
2021/01/18 11:18:49;;;;;;;19.67;3.00;;;;;;;9.47;100.00;102567.25;5071188;28;20093;-66
2021/01/18 11:21:25;;;;;;;21.52;4.15;;;;;;;9.46;100.00;102560.09;5071056;28;20050;-66
2021/01/18 11:23:51;;;;;;;22.48;2.80;;;;;;;9.47;100.00;102567.25;5071171;28;20047;-66
2021/01/18 11:26:16;;;;;;;22.38;3.75;;;;;;;9.50;100.00;102555.94;5071155;28;20037;-66
2021/01/18 11:28:42;;;;;;;21.17;2.95;;;;;;;9.54;100.00;102547.16;5070806;28;20048;-66
2021/01/18 11:31:08;;;;;;;21.45;3.35;;;;;;;9.60;100.00;102551.03;5071107;28;20039;-66
2021/01/18 11:33:33;;;;;;;23.33;4.25;;;;;;;9.64;100.00;102536.78;5053216;28;20387;-66
2021/01/18 11:36:00;;;;;;;22.98;3.38;;;;;;;9.68;100.00;102537.25;5070924;28;20048;-66